createdAt,value
2022-12-18T00:04:52.126Z,-4.39
2022-12-18T00:09:59.254Z,-4.45
2022-12-18T00:15:07.497Z,-4.53
2022-12-18T00:20:15.261Z,-4.60
2022-12-18T00:25:22.760Z,-4.60
2022-12-18T00:30:30.433Z,-4.55
2022-12-18T00:35:37.924Z,-4.45
2022-12-18T00:40:45.057Z,-4.37
2022-12-18T00:45:53.563Z,-4.33
2022-12-18T00:51:00.924Z,-4.31
2022-12-18T00:56:08.524Z,-4.33
2022-12-18T01:01:15.671Z,-4.37
2022-12-18T01:06:22.786Z,-4.45
2022-12-18T01:11:30.056Z,-4.51
2022-12-18T01:16:37.675Z,-4.51
2022-12-18T01:21:45.361Z,-4.48
2022-12-18T01:26:52.379Z,-4.38
2022-12-18T01:31:59.944Z,-4.27
2022-12-18T01:37:07.784Z,-4.16
2022-12-18T01:42:13.949Z,-4.10
2022-12-18T01:47:41.447Z,-4.12
2022-12-18T01:52:52.133Z,-4.19
2022-12-18T01:58:02.665Z,-4.26
2022-12-18T02:03:09.957Z,-4.31
2022-12-18T02:08:23.142Z,-4.31
2022-12-18T02:13:38.861Z,-4.25
2022-12-18T02:18:50.992Z,-4.15
2022-12-18T02:24:08.540Z,-4.05
2022-12-18T02:29:20.242Z,-4.02
2022-12-18T02:34:31.445Z,-4.06
2022-12-18T02:39:40.936Z,-4.13
2022-12-18T02:44:52.304Z,-4.21
2022-12-18T02:50:12.378Z,-4.29
2022-12-18T02:55:30.342Z,-4.34
2022-12-18T03:00:46.340Z,-4.32
2022-12-18T03:05:58.978Z,-4.27
2022-12-18T03:11:09.894Z,-4.23
2022-12-18T03:16:24.677Z,-4.22
2022-12-18T03:21:36.529Z,-4.28
2022-12-18T03:26:47.079Z,-4.37
2022-12-18T03:32:00.762Z,-4.46
2022-12-18T03:37:08.785Z,-4.53
2022-12-18T03:42:28.068Z,-4.54
2022-12-18T03:47:52.382Z,-4.48
2022-12-18T03:53:06.374Z,-4.38
2022-12-18T03:58:18.387Z,-4.30
2022-12-18T04:03:36.607Z,-4.26
2022-12-18T04:08:44.955Z,-4.24
2022-12-18T04:13:57.414Z,-4.29
2022-12-18T04:19:04.840Z,-4.36
2022-12-18T04:24:17.260Z,-4.42
2022-12-18T04:29:32.407Z,-4.50
2022-12-18T04:34:40.072Z,-4.53
2022-12-18T04:39:46.104Z,-4.49
2022-12-18T04:45:00.109Z,-4.41
2022-12-18T04:50:08.415Z,-4.32
2022-12-18T04:55:15.477Z,-4.23
2022-12-18T05:00:23.164Z,-4.20
2022-12-18T05:05:28.621Z,-4.26
2022-12-18T05:10:38.270Z,-4.35
2022-12-18T05:15:53.742Z,-4.45
2022-12-18T05:21:00.868Z,-4.57
2022-12-18T05:26:09.530Z,-4.67
2022-12-18T05:31:17.312Z,-4.75
2022-12-18T05:36:24.444Z,-4.78
2022-12-18T05:41:31.543Z,-4.73
2022-12-18T05:46:38.672Z,-4.66
2022-12-18T05:51:48.583Z,-4.68
2022-12-18T05:56:55.860Z,-4.73
2022-12-18T06:02:03.068Z,-4.79
2022-12-18T06:07:10.172Z,-4.86
2022-12-18T06:12:17.304Z,-4.95
2022-12-18T06:17:24.414Z,-5.06
2022-12-18T06:22:32.638Z,-5.17
2022-12-18T06:27:39.896Z,-5.26
2022-12-18T06:32:50.460Z,-5.30
2022-12-18T06:38:00.279Z,-5.29
2022-12-18T06:43:07.451Z,-5.31
2022-12-18T06:48:14.517Z,-5.37
2022-12-18T06:53:21.652Z,-5.48
2022-12-18T06:58:29.068Z,-5.64
2022-12-18T07:03:36.194Z,-5.79
2022-12-18T07:08:43.394Z,-5.94
2022-12-18T07:13:50.545Z,-6.07
2022-12-18T07:18:58.160Z,-6.14
2022-12-18T07:24:05.674Z,-6.13
2022-12-18T07:29:12.754Z,-6.05
2022-12-18T07:34:19.941Z,-5.97
2022-12-18T07:39:27.031Z,-5.97
2022-12-18T07:44:34.014Z,-6.02
2022-12-18T07:49:41.076Z,-6.06
2022-12-18T07:54:50.062Z,-6.14
2022-12-18T07:59:57.173Z,-6.22
2022-12-18T08:05:04.376Z,-6.31
2022-12-18T08:10:12.394Z,-6.33
2022-12-18T08:15:19.905Z,-6.33
2022-12-18T08:20:27.003Z,-6.29
2022-12-18T08:25:34.159Z,-6.25
2022-12-18T08:30:41.445Z,-6.23
2022-12-18T08:35:47.331Z,-6.24
2022-12-18T08:41:02.405Z,-6.27
2022-12-18T08:46:10.611Z,-6.32
2022-12-18T08:51:19.878Z,-6.37
2022-12-18T08:56:27.011Z,-6.40
2022-12-18T09:01:34.404Z,-6.35
2022-12-18T09:06:42.701Z,-6.24
2022-12-18T09:11:49.863Z,-6.10
2022-12-18T09:16:56.042Z,-6.01
2022-12-18T09:22:03.333Z,-5.94
2022-12-18T09:27:10.484Z,-5.93
2022-12-18T09:32:22.325Z,-5.91
2022-12-18T09:37:30.014Z,-6.02
2022-12-18T09:42:37.275Z,-6.00
2022-12-18T09:47:47.067Z,-5.91
2022-12-18T09:52:58.184Z,-5.78
2022-12-18T09:58:12.540Z,-5.68
2022-12-18T10:03:19.966Z,-5.52
2022-12-18T10:08:36.158Z,-5.38
2022-12-18T10:13:50.155Z,-5.31
2022-12-18T10:19:10.062Z,-5.30
2022-12-18T10:24:27.221Z,-5.31
2022-12-18T10:29:34.370Z,-5.34
2022-12-18T10:34:44.140Z,-5.39
2022-12-18T10:40:14.304Z,-5.42
2022-12-18T10:45:28.943Z,-5.49
2022-12-18T10:51:09.797Z,-5.49
2022-12-18T10:56:08.956Z,-5.39
2022-12-18T11:01:18.341Z,-5.27
2022-12-18T11:06:27.220Z,-5.12
2022-12-18T11:11:35.965Z,-5.02
2022-12-18T11:17:23.722Z,-5.01
2022-12-18T11:22:25.633Z,-5.10
2022-12-18T11:27:33.835Z,-5.20
2022-12-18T11:32:43.219Z,-5.27
2022-12-18T11:38:00.460Z,-5.31
2022-12-18T11:43:13.132Z,-5.39
2022-12-18T11:48:24.456Z,-5.46
2022-12-18T11:53:32.128Z,-5.37
2022-12-18T11:58:43.529Z,-5.29
2022-12-18T12:04:08.457Z,-5.22
2022-12-18T12:09:24.062Z,-5.14
2022-12-18T12:14:44.800Z,-5.15
2022-12-18T12:20:04.619Z,-5.27
2022-12-18T12:25:30.160Z,-5.41
2022-12-18T12:30:50.782Z,-5.59
2022-12-18T12:36:06.466Z,-5.70
2022-12-18T12:41:32.860Z,-5.85
2022-12-18T12:46:44.014Z,-5.88
2022-12-18T12:51:59.397Z,-5.85
2022-12-18T12:57:14.953Z,-5.79
2022-12-18T13:02:30.736Z,-5.81
2022-12-18T13:07:42.935Z,-5.93
2022-12-18T13:12:58.727Z,-6.00
2022-12-18T13:18:23.755Z,-6.07
2022-12-18T13:23:34.076Z,-6.20
2022-12-18T13:28:58.180Z,-6.32
2022-12-18T13:34:26.221Z,-6.40
2022-12-18T13:39:38.002Z,-6.51
2022-12-18T13:44:45.549Z,-6.56
2022-12-18T13:49:51.132Z,-6.52
2022-12-18T13:55:00.395Z,-6.41
2022-12-18T14:00:29.717Z,-6.29
2022-12-18T14:05:39.963Z,-6.37
2022-12-18T14:10:53.449Z,-6.58
2022-12-18T14:16:03.791Z,-6.74
2022-12-18T14:21:22.348Z,-6.85
2022-12-18T14:26:31.974Z,-6.94
2022-12-18T14:31:39.896Z,-7.02
2022-12-18T14:36:53.888Z,-7.01
2022-12-18T14:42:01.166Z,-6.89
2022-12-18T14:47:15.884Z,-6.71
2022-12-18T14:52:30.102Z,-6.51
2022-12-18T14:57:43.451Z,-6.35
2022-12-18T15:02:54.743Z,-6.37
2022-12-18T15:08:03.394Z,-6.54
2022-12-18T15:13:25.640Z,-6.68
2022-12-18T15:18:35.013Z,-6.79
2022-12-18T15:23:51.723Z,-6.88
2022-12-18T15:29:03.130Z,-6.94
2022-12-18T15:34:23.732Z,-6.98
2022-12-18T15:39:30.963Z,-7.03
2022-12-18T15:44:38.139Z,-7.06
2022-12-18T15:49:45.284Z,-7.04
2022-12-18T15:55:10.088Z,-6.95
2022-12-18T16:00:18.552Z,-6.85
2022-12-18T16:05:25.661Z,-6.74
2022-12-18T16:10:32.880Z,-6.61
2022-12-18T16:15:40.238Z,-6.61
2022-12-18T16:20:47.548Z,-6.71
2022-12-18T16:25:54.787Z,-6.84
2022-12-18T16:31:02.229Z,-6.93
2022-12-18T16:36:09.056Z,-7.02
2022-12-18T16:41:34.154Z,-7.10
2022-12-18T16:46:44.192Z,-7.13
2022-12-18T16:51:52.363Z,-7.10
2022-12-18T16:57:00.811Z,-7.03
2022-12-18T17:02:08.603Z,-6.96
2022-12-18T17:07:16.920Z,-6.87
2022-12-18T17:12:25.433Z,-6.78
2022-12-18T17:17:32.876Z,-6.72
2022-12-18T17:22:38.853Z,-6.71
2022-12-18T17:27:46.952Z,-6.70
2022-12-18T17:32:55.002Z,-6.70
2022-12-18T17:38:02.479Z,-6.66
2022-12-18T17:43:11.036Z,-6.59
2022-12-18T17:48:18.843Z,-6.59
2022-12-18T17:53:26.236Z,-6.60
2022-12-18T17:58:34.070Z,-6.60
2022-12-18T18:03:41.728Z,-6.61
2022-12-18T18:08:49.878Z,-6.62
2022-12-18T18:14:04.313Z,-6.61
2022-12-18T18:19:14.130Z,-6.67
2022-12-18T18:24:24.229Z,-6.71
2022-12-18T18:29:31.961Z,-6.70
2022-12-18T18:34:44.833Z,-6.74
2022-12-18T18:39:52.108Z,-6.86
2022-12-18T18:44:59.254Z,-6.94
2022-12-18T18:50:07.398Z,-6.91
2022-12-18T18:55:20.993Z,-6.90
2022-12-18T19:00:33.086Z,-6.94
2022-12-18T19:05:44.439Z,-7.08
2022-12-18T19:10:59.352Z,-6.93
2022-12-18T19:16:09.265Z,-6.88
2022-12-18T19:21:19.708Z,-7.10
2022-12-18T19:26:29.097Z,-7.20
2022-12-18T19:31:42.107Z,-7.28
2022-12-18T19:37:00.633Z,-7.32
2022-12-18T19:42:08.170Z,-7.52
2022-12-18T19:47:15.607Z,-7.70
2022-12-18T19:52:25.059Z,-7.80
2022-12-18T19:57:32.929Z,-7.82
2022-12-18T20:02:40.167Z,-7.78
2022-12-18T20:07:47.971Z,-7.73
2022-12-18T20:12:55.382Z,-7.72
2022-12-18T20:18:03.896Z,-7.70
2022-12-18T20:23:11.313Z,-7.69
2022-12-18T20:28:18.706Z,-7.77
2022-12-18T20:33:25.897Z,-7.83
2022-12-18T20:38:57.078Z,-7.83
2022-12-18T20:44:23.574Z,-7.77
2022-12-18T20:49:40.107Z,-7.69
2022-12-18T20:55:06.264Z,-7.69
2022-12-18T21:00:20.100Z,-7.67
2022-12-18T21:05:30.147Z,-7.65
2022-12-18T21:10:37.146Z,-7.59
2022-12-18T21:15:45.797Z,-7.58
2022-12-18T21:20:58.373Z,-7.65
2022-12-18T21:26:20.853Z,-7.64
2022-12-18T21:31:31.052Z,-7.56
2022-12-18T21:36:38.371Z,-7.54
2022-12-18T21:42:04.361Z,-7.55
2022-12-18T21:47:22.387Z,-7.62
2022-12-18T21:52:32.218Z,-7.63
2022-12-18T21:57:41.492Z,-7.63
2022-12-18T22:03:01.168Z,-7.63
2022-12-18T22:08:16.720Z,-7.65
2022-12-18T22:13:24.034Z,-7.65
2022-12-18T22:18:31.501Z,-7.62
2022-12-18T22:23:39.107Z,-7.61
2022-12-18T22:29:04.152Z,-7.55
2022-12-18T22:34:11.941Z,-7.53
2022-12-18T22:39:21.351Z,-7.55
2022-12-18T22:44:30.045Z,-7.59
2022-12-18T22:49:37.626Z,-7.58
2022-12-18T22:54:43.079Z,-7.56
2022-12-18T22:59:50.251Z,-7.53
2022-12-18T23:04:57.304Z,-7.57
2022-12-18T23:10:04.487Z,-7.58
2022-12-18T23:15:13.597Z,-7.57
2022-12-18T23:20:23.193Z,-7.58
2022-12-18T23:25:30.301Z,-7.58
2022-12-18T23:30:37.458Z,-7.56
2022-12-18T23:35:44.560Z,-7.56
2022-12-18T23:40:51.768Z,-7.53
2022-12-18T23:46:03.431Z,-7.51
2022-12-18T23:51:12.438Z,-7.52
2022-12-18T23:56:19.566Z,-7.52
